Aérodrome :
LOGIN :

S'inscrire | Disclaimer

   EN    FR    IT 

 










Légende :    VFR   VFR Marginal   IFR   IFR Intensif   IFR Très Intensif
Visi : 
Plafond : 
>= 8 km
>= 3000ft
5 à 8 km
1000 à 3000 ft
1500m à 5 km
500 à 1000 ft
800 à 1500m
200 à 500 ft
< 800m
< 200 ft
Symboles :   Orages  Brouillard  Fortes neiges  Fortes précipitations  Vent > 20 kt
SIGMETs :   Divers  Orages  Givrage  Turbulence  Onde Orograph.  Cendres Volcan.






- Altitude de l'aérodrome : 28 ft
- Code IATA : SOZ


LFKS - Solenzara

DERNIER METAR :
  • 161100Z AUTO 36007KT 340V060 9999 // OVC043/// ///TCU 12/06 Q1016

METARs EXPIRÉS :
  • 161030Z AUTO 35008KT 9999 // OVC044/// ///TCU 12/07 Q1016
  • 161000Z AUTO 03011KT 9999 // FEW020/// OVC042/// ///TCU 12/07 Q1016
  • 160930Z AUTO 02010KT 9999 // FEW022/// BKN045/// OVC058/// ///CB 12/07 Q1016
  • 160900Z AUTO 36008KT 320V030 9999 // FEW015/// SCT042/// OVC056/// ///CB 13/07 Q1016
  • 160830Z AUTO 01009KT 9999 // OVC038/// ///TCU 13/07 Q1016

TAF TAF LFKS
Valide du 16 à 09h jusqu'au 17 à 09h UTC


160800Z 1609/1709 05010KT 9999 SCT030 BKN040
TEMPO 1609/1615 6000 -SHRA BKN030 BKN040TCU
BECMG 1618/1620 27005KT CAVOK
BECMG 1707/1709 03010KT



MET'MAP, la Météo Aéronautique d'un coup d'oeil ! - Copyright ORBIFLY Décembre 2007 - Disclaimer

ORBIFLY MET'MAP TEAM :

Programmation & Développement : Alexandra Zaïnal
Sur une idée originale de : Baudouin d'Aumeries
Assistance à la programmation : Marc-Olivier Méhu
Soutien technique & logistique : Manuel Goepfert

Contact : metmap@orbifly.com




SOURCES & CREDITS :

   NOAA